SCO45IJ EGPD-EGPC
Flight info
| Callsign | SCO45IJ |
|---|---|
| Flight time | 0h 24m |
| Altitude | 14000 |
| Route | ADN Y904 WIK |
| Aircraft | AT46/M-SDFGIRY/S |
Departure
| Time | 2026-05-04 19:42 |
|---|---|
| Airport | Aberdeen International Airport (EGPD) |
Arrival
| Time | 2026-05-04 20:07 |
|---|---|
| Airport | Wick John O'Groats Airport (EGPC) |
| Time | Latitude | Longitude | Altitude | Speed | Heading |
|---|---|---|---|---|---|
| 2026-05-04 19:29 | 57.20226 | -2.20435 | 218 ft | 0 kts | 137° |
| 2026-05-04 19:32 | 57.20228 | -2.20437 | 223 ft | 3 kts | 137° |
| 2026-05-04 19:33 | 57.20231 | -2.20444 | 221 ft | 0 kts | 137° |
| 2026-05-04 19:34 | 57.20235 | -2.20450 | 220 ft | 2 kts | 137° |
| 2026-05-04 19:34 | 57.20247 | -2.20471 | 218 ft | 2 kts | 137° |
| 2026-05-04 19:35 | 57.20254 | -2.20498 | 218 ft | 2 kts | 87° |
| 2026-05-04 19:35 | 57.20252 | -2.20514 | 218 ft | 0 kts | 57° |
| 2026-05-04 19:37 | 57.20259 | -2.20495 | 218 ft | 3 kts | 54° |
| 2026-05-04 19:38 | 57.20280 | -2.20449 | 218 ft | 6 kts | 47° |
| 2026-05-04 19:38 | 57.20312 | -2.20383 | 224 ft | 8 kts | 49° |
| 2026-05-04 19:38 | 57.20320 | -2.20331 | 218 ft | 3 kts | 103° |
| 2026-05-04 19:38 | 57.20307 | -2.20301 | 221 ft | 3 kts | 153° |
| 2026-05-04 19:39 | 57.20257 | -2.20263 | 219 ft | 13 kts | 158° |
| 2026-05-04 19:39 | 57.20151 | -2.20184 | 221 ft | 20 kts | 158° |
| 2026-05-04 19:39 | 57.20014 | -2.20083 | 218 ft | 22 kts | 157° |
| 2026-05-04 19:39 | 57.19903 | -2.19921 | 215 ft | 20 kts | 137° |
| 2026-05-04 19:40 | 57.19789 | -2.19799 | 216 ft | 17 kts | 159° |
| 2026-05-04 19:40 | 57.19681 | -2.19721 | 218 ft | 17 kts | 158° |
| 2026-05-04 19:40 | 57.19584 | -2.19616 | 219 ft | 16 kts | 140° |
| 2026-05-04 19:40 | 57.19500 | -2.19482 | 220 ft | 17 kts | 138° |
| 2026-05-04 19:41 | 57.19427 | -2.19328 | 217 ft | 15 kts | 98° |
| 2026-05-04 19:41 | 57.19497 | -2.19264 | 218 ft | 27 kts | 338° |
| 2026-05-04 19:41 | 57.19926 | -2.19581 | 215 ft | 103 kts | 340° |
| 2026-05-04 19:41 | 57.20739 | -2.20117 | 310 ft | 137 kts | 336° |
| 2026-05-04 19:42 | 57.21635 | -2.20856 | 644 ft | 147 kts | 335° |
| 2026-05-04 19:42 | 57.22655 | -2.21792 | 784 ft | 175 kts | 332° |
| 2026-05-04 19:42 | 57.23764 | -2.22914 | 1405 ft | 187 kts | 338° |
| 2026-05-04 19:42 | 57.25051 | -2.23528 | 2113 ft | 194 kts | 347° |
| 2026-05-04 19:43 | 57.26375 | -2.24057 | 2864 ft | 196 kts | 345° |
| 2026-05-04 19:43 | 57.27700 | -2.24653 | 3630 ft | 196 kts | 342° |
| 2026-05-04 19:43 | 57.29006 | -2.25359 | 4383 ft | 196 kts | 339° |
| 2026-05-04 19:43 | 57.30297 | -2.26161 | 5134 ft | 196 kts | 337° |
| 2026-05-04 19:44 | 57.31577 | -2.27023 | 5865 ft | 196 kts | 335° |
| 2026-05-04 19:44 | 57.32859 | -2.27931 | 6577 ft | 198 kts | 335° |
| 2026-05-04 19:44 | 57.34146 | -2.28841 | 7268 ft | 198 kts | 334° |
| 2026-05-04 19:44 | 57.35443 | -2.29751 | 7913 ft | 202 kts | 334° |
| 2026-05-04 19:45 | 57.36785 | -2.30695 | 8436 ft | 210 kts | 334° |
| 2026-05-04 19:45 | 57.38168 | -2.31666 | 8967 ft | 215 kts | 334° |
| 2026-05-04 19:45 | 57.39580 | -2.32660 | 9507 ft | 219 kts | 334° |
| 2026-05-04 19:45 | 57.41017 | -2.33671 | 10035 ft | 221 kts | 334° |
| 2026-05-04 19:46 | 57.42460 | -2.34693 | 10533 ft | 223 kts | 334° |
| 2026-05-04 19:46 | 57.43917 | -2.35728 | 11015 ft | 225 kts | 334° |
| 2026-05-04 19:46 | 57.45383 | -2.36764 | 11527 ft | 225 kts | 334° |
| 2026-05-04 19:46 | 57.46848 | -2.37800 | 12040 ft | 226 kts | 334° |
| 2026-05-04 19:47 | 57.48312 | -2.38836 | 12560 ft | 225 kts | 334° |
| 2026-05-04 19:47 | 57.49778 | -2.39866 | 13091 ft | 225 kts | 333° |
| 2026-05-04 19:47 | 57.50749 | -2.40546 | 13451 ft | 225 kts | 333° |
| 2026-05-04 19:47 | 57.52209 | -2.41581 | 13903 ft | 228 kts | 333° |
| 2026-05-04 19:48 | 57.53748 | -2.42675 | 13962 ft | 244 kts | 334° |
| 2026-05-04 19:48 | 57.55376 | -2.43834 | 13993 ft | 257 kts | 334° |
| 2026-05-04 19:48 | 57.57078 | -2.45053 | 14003 ft | 266 kts | 334° |
| 2026-05-04 19:48 | 57.58827 | -2.46322 | 14008 ft | 271 kts | 333° |
| 2026-05-04 19:49 | 57.60579 | -2.47597 | 14012 ft | 270 kts | 334° |
| 2026-05-04 19:49 | 57.62323 | -2.48864 | 14012 ft | 269 kts | 333° |
| 2026-05-04 19:49 | 57.64061 | -2.50134 | 14014 ft | 268 kts | 334° |
| 2026-05-04 19:49 | 57.65800 | -2.51385 | 14015 ft | 268 kts | 334° |
| 2026-05-04 19:50 | 57.67538 | -2.52631 | 14011 ft | 267 kts | 334° |
| 2026-05-04 19:50 | 57.69270 | -2.53875 | 14010 ft | 266 kts | 334° |
| 2026-05-04 19:50 | 57.70998 | -2.55114 | 14011 ft | 266 kts | 334° |
| 2026-05-04 19:50 | 57.72724 | -2.56351 | 14011 ft | 266 kts | 334° |
| 2026-05-04 19:51 | 57.74448 | -2.57592 | 14012 ft | 266 kts | 334° |
| 2026-05-04 19:51 | 57.76175 | -2.58832 | 14011 ft | 265 kts | 334° |
| 2026-05-04 19:51 | 57.77896 | -2.60080 | 14016 ft | 265 kts | 333° |
| 2026-05-04 19:51 | 57.79567 | -2.61500 | 14017 ft | 263 kts | 329° |
| 2026-05-04 19:52 | 57.81189 | -2.63064 | 14013 ft | 262 kts | 327° |
| 2026-05-04 19:52 | 57.82798 | -2.64660 | 14019 ft | 261 kts | 327° |
| 2026-05-04 19:52 | 57.84402 | -2.66253 | 14018 ft | 261 kts | 328° |
| 2026-05-04 19:52 | 57.86024 | -2.67815 | 14022 ft | 261 kts | 328° |
| 2026-05-04 19:53 | 57.87648 | -2.69353 | 14017 ft | 261 kts | 328° |
| 2026-05-04 19:53 | 57.89272 | -2.70897 | 14016 ft | 261 kts | 328° |
| 2026-05-04 19:53 | 57.90892 | -2.72439 | 14019 ft | 261 kts | 328° |
| 2026-05-04 19:53 | 57.92511 | -2.73981 | 14018 ft | 261 kts | 328° |
| 2026-05-04 19:54 | 57.94127 | -2.75522 | 14022 ft | 261 kts | 328° |
| 2026-05-04 19:54 | 57.95745 | -2.77064 | 14020 ft | 261 kts | 328° |
| 2026-05-04 19:54 | 57.97363 | -2.78607 | 14023 ft | 260 kts | 328° |
| 2026-05-04 19:54 | 57.98980 | -2.80151 | 14021 ft | 260 kts | 328° |
| 2026-05-04 19:55 | 58.00591 | -2.81692 | 14021 ft | 260 kts | 328° |
| 2026-05-04 19:55 | 58.02207 | -2.83240 | 14020 ft | 260 kts | 328° |
| 2026-05-04 19:55 | 58.03816 | -2.84782 | 14022 ft | 260 kts | 328° |
| 2026-05-04 19:55 | 58.05429 | -2.86332 | 14022 ft | 260 kts | 328° |
| 2026-05-04 19:56 | 58.07038 | -2.87876 | 14024 ft | 260 kts | 328° |
| 2026-05-04 19:56 | 58.08645 | -2.89420 | 14024 ft | 259 kts | 328° |
| 2026-05-04 19:56 | 58.10252 | -2.90968 | 13970 ft | 261 kts | 327° |
| 2026-05-04 19:56 | 58.11784 | -2.92593 | 13772 ft | 233 kts | 323° |
| 2026-05-04 19:57 | 58.13087 | -2.93921 | 13541 ft | 202 kts | 328° |
| 2026-05-04 19:57 | 58.14359 | -2.94987 | 12865 ft | 198 kts | 329° |
| 2026-05-04 19:57 | 58.15623 | -2.96070 | 12209 ft | 206 kts | 328° |
| 2026-05-04 19:57 | 58.16930 | -2.97301 | 11578 ft | 219 kts | 327° |
| 2026-05-04 19:58 | 58.18340 | -2.98661 | 10944 ft | 228 kts | 327° |
| 2026-05-04 19:58 | 58.19753 | -3.00035 | 10338 ft | 234 kts | 328° |
| 2026-05-04 19:58 | 58.21238 | -3.01473 | 9698 ft | 238 kts | 328° |
| 2026-05-04 19:58 | 58.22701 | -3.02897 | 9028 ft | 241 kts | 328° |
| 2026-05-04 19:59 | 58.24200 | -3.04355 | 8365 ft | 243 kts | 329° |
| 2026-05-04 19:59 | 58.25707 | -3.05828 | 7716 ft | 244 kts | 329° |
| 2026-05-04 19:59 | 58.27177 | -3.07252 | 7074 ft | 228 kts | 329° |
| 2026-05-04 19:59 | 58.28544 | -3.08587 | 6446 ft | 216 kts | 329° |
| 2026-05-04 20:00 | 58.29854 | -3.09867 | 5790 ft | 208 kts | 329° |
| 2026-05-04 20:00 | 58.31124 | -3.11132 | 5133 ft | 204 kts | 329° |
| 2026-05-04 20:00 | 58.32369 | -3.12387 | 4469 ft | 201 kts | 329° |
| 2026-05-04 20:00 | 58.33600 | -3.13634 | 3821 ft | 200 kts | 330° |
| 2026-05-04 20:01 | 58.34834 | -3.14856 | 3177 ft | 199 kts | 331° |
| 2026-05-04 20:01 | 58.36056 | -3.16064 | 2561 ft | 197 kts | 333° |
| 2026-05-04 20:01 | 58.37237 | -3.17231 | 2249 ft | 184 kts | 334° |
| 2026-05-04 20:01 | 58.38335 | -3.18310 | 2110 ft | 174 kts | 335° |
| 2026-05-04 20:02 | 58.39415 | -3.19358 | 2059 ft | 174 kts | 335° |
| 2026-05-04 20:02 | 58.40492 | -3.20411 | 2031 ft | 173 kts | 335° |
| 2026-05-04 20:02 | 58.41575 | -3.21466 | 2010 ft | 177 kts | 336° |
| 2026-05-04 20:02 | 58.42684 | -3.22555 | 2002 ft | 181 kts | 335° |
| 2026-05-04 20:03 | 58.43821 | -3.23582 | 2004 ft | 179 kts | 347° |
| 2026-05-04 20:03 | 58.45057 | -3.23521 | 1760 ft | 172 kts | 13° |
| 2026-05-04 20:03 | 58.46168 | -3.23247 | 1617 ft | 152 kts | 9° |
| 2026-05-04 20:03 | 58.47184 | -3.23110 | 1539 ft | 141 kts | 6° |
| 2026-05-04 20:04 | 58.48148 | -3.23081 | 1538 ft | 137 kts | 4° |
| 2026-05-04 20:04 | 58.49080 | -3.23094 | 1520 ft | 131 kts | 2° |
| 2026-05-04 20:04 | 58.49870 | -3.22558 | 1498 ft | 120 kts | 55° |
| 2026-05-04 20:04 | 58.49887 | -3.21074 | 1505 ft | 117 kts | 111° |
| 2026-05-04 20:05 | 58.49574 | -3.19673 | 1511 ft | 112 kts | 111° |
| 2026-05-04 20:05 | 58.49238 | -3.18382 | 1507 ft | 109 kts | 113° |
| 2026-05-04 20:05 | 58.48900 | -3.16995 | 1191 ft | 123 kts | 111° |
| 2026-05-04 20:05 | 58.48396 | -3.15637 | 963 ft | 123 kts | 126° |
| 2026-05-04 20:06 | 58.47878 | -3.14340 | 694 ft | 120 kts | 123° |
| 2026-05-04 20:06 | 58.47384 | -3.13095 | 557 ft | 112 kts | 124° |
| 2026-05-04 20:06 | 58.46919 | -3.11908 | 364 ft | 109 kts | 124° |
| 2026-05-04 20:06 | 58.46469 | -3.10784 | 202 ft | 105 kts | 125° |
| 2026-05-04 20:07 | 58.46080 | -3.09803 | 122 ft | 52 kts | 124° |
| 2026-05-04 20:07 | 58.45905 | -3.09357 | 117 ft | 37 kts | 126° |
| 2026-05-04 20:07 | 58.45774 | -3.09033 | 121 ft | 26 kts | 128° |
| 2026-05-04 20:07 | 58.45680 | -3.08792 | 121 ft | 19 kts | 125° |
| 2026-05-04 20:08 | 58.45614 | -3.08622 | 121 ft | 13 kts | 132° |
| 2026-05-04 20:08 | 58.45547 | -3.08656 | 118 ft | 13 kts | 238° |
| 2026-05-04 20:08 | 58.45485 | -3.08791 | 118 ft | 14 kts | 222° |
| 2026-05-04 20:08 | 58.45450 | -3.08844 | 120 ft | 1 kts | 217° |
| 2026-05-04 20:09 | 58.45431 | -3.08895 | 118 ft | 11 kts | 249° |
| 2026-05-04 20:09 | 58.45396 | -3.09108 | 117 ft | 21 kts | 242° |
| 2026-05-04 20:09 | 58.45292 | -3.09297 | 120 ft | 22 kts | 219° |
| 2026-05-04 20:09 | 58.45257 | -3.09395 | 118 ft | 1 kts | 263° |
| 2026-05-04 20:10 | 58.45261 | -3.09410 | 118 ft | 0 kts | 321° |
| 2026-05-04 20:10 | 58.45280 | -3.09386 | 117 ft | 9 kts | 74° |
| 2026-05-04 20:10 | 58.45312 | -3.09122 | 120 ft | 20 kts | 60° |
| 2026-05-04 20:10 | 58.45353 | -3.08914 | 119 ft | 18 kts | 116° |
| 2026-05-04 20:11 | 58.45354 | -3.08820 | 120 ft | 0 kts | 80° |